Time;durP1;ratioP1;P1;durP2;ratioP2;P2;SDS_P1;SDS_P2;PMS_P1;PMS_P2;Temp;Humidity;BMP_temperature;BMP_pressure;BME280_temperature;BME280_humidity;BME280_pressure;Samples;Min_cycle;Max_cycle;Signal;HPM_P1;HPM_P2
2023/06/29 00:02:20;;;;;;;12.00;11.40;;;;;;;;;;4984277;28;20469;-64
2023/06/29 00:04:45;;;;;;;12.45;11.85;;;;;;;;;;4987119;28;20085;-64
2023/06/29 00:07:10;;;;;;;12.10;11.50;;;;;;;;;;4986076;28;20030;-66
2023/06/29 00:09:35;;;;;;;12.05;11.45;;;;;;;;;;4985815;28;20027;-65
2023/06/29 00:12:01;;;;;;;13.07;12.38;;;;;;;;;;4988237;28;20030;-66
2023/06/29 00:14:26;;;;;;;13.05;12.35;;;;;;;;;;4986292;28;20501;-66
2023/06/29 00:16:51;;;;;;;12.63;12.02;;;;;;;;;;4987381;28;20042;-66
2023/06/29 00:19:17;;;;;;;13.27;12.57;;;;;;;;;;4985875;28;20039;-66
2023/06/29 00:21:42;;;;;;;13.07;12.38;;;;;;;;;;4986326;28;20101;-65
2023/06/29 00:24:11;;;;;;;12.13;11.52;;;;;;;;;;4994533;28;20044;-65
2023/06/29 00:26:37;;;;;;;12.15;11.55;;;;;;;;;;4994732;28;20033;-65
2023/06/29 00:29:02;;;;;;;12.50;11.90;;;;;;;;;;4994552;28;20110;-65
2023/06/29 00:31:27;;;;;;;12.55;11.95;;;;;;;;;;4987535;28;20470;-65
2023/06/29 00:33:53;;;;;;;12.20;11.60;;;;;;;;;;4982844;28;20556;-65
2023/06/29 00:36:18;;;;;;;12.00;11.40;;;;;;;;;;4984627;28;20038;-65
2023/06/29 00:38:43;;;;;;;12.00;11.40;;;;;;;;;;4994471;28;20034;-65
2023/06/29 00:41:09;;;;;;;12.65;12.05;;;;;;;;;;4988961;28;20508;-65
2023/06/29 00:43:34;;;;;;;12.48;11.88;;;;;;;;;;4985856;28;20059;-67
2023/06/29 00:45:59;;;;;;;12.30;11.70;;;;;;;;;;4992280;28;20125;-65
2023/06/29 00:48:25;;;;;;;12.20;11.60;;;;;;;;;;4983207;28;20478;-65
2023/06/29 00:50:50;;;;;;;12.10;11.50;;;;;;;;;;4989978;28;20121;-65
2023/06/29 00:53:19;;;;;;;13.02;12.32;;;;;;;;;;4985193;28;20050;-65
2023/06/29 00:55:44;;;;;;;13.52;12.80;;;;;;;;;;4984031;28;20034;-66
2023/06/29 00:58:10;;;;;;;13.00;12.30;;;;;;;;;;4985781;28;20038;-65
2023/06/29 01:00:35;;;;;;;12.93;12.23;;;;;;;;;;4982997;28;20031;-65
2023/06/29 01:03:01;;;;;;;13.02;12.32;;;;;;;;;;4984310;28;20031;-65
2023/06/29 01:05:33;;;;;;;13.10;12.40;;;;;;;;;;4986005;28;20025;-65
2023/06/29 01:08:02;;;;;;;13.40;12.70;;;;;;;;;;4985059;28;20026;-65
2023/06/29 01:10:28;;;;;;;13.10;12.40;;;;;;;;;;4984790;28;20018;-64
2023/06/29 01:12:56;;;;;;;12.32;11.73;;;;;;;;;;4986221;28;20038;-65
2023/06/29 01:15:22;;;;;;;13.13;12.43;;;;;;;;;;4983818;28;20030;-66
2023/06/29 01:17:50;;;;;;;12.20;11.60;;;;;;;;;;4984353;28;20023;-65
2023/06/29 01:20:16;;;;;;;12.02;11.50;;;;;;;;;;4985476;28;20038;-65
2023/06/29 01:22:53;;;;;;;12.82;12.15;;;;;;;;;;4994476;28;20165;-64
2023/06/29 01:25:19;;;;;;;11.77;11.27;;;;;;;;;;4993840;28;20355;-64
2023/06/29 01:27:44;;;;;;;12.43;11.82;;;;;;;;;;4991214;28;20041;-64
2023/06/29 01:30:13;;;;;;;12.98;12.27;;;;;;;;;;4994447;28;20038;-66
2023/06/29 01:32:39;;;;;;;12.27;11.68;;;;;;;;;;4994585;28;20022;-65
2023/06/29 01:35:07;;;;;;;12.48;11.88;;;;;;;;;;4994548;28;20434;-65
2023/06/29 01:37:39;;;;;;;12.32;11.73;;;;;;;;;;4991928;28;20030;-66
2023/06/29 01:40:08;;;;;;;12.38;11.77;;;;;;;;;;4994220;28;20482;-65
2023/06/29 01:42:34;;;;;;;13.82;13.02;;;;;;;;;;4992934;28;20038;-65
2023/06/29 01:45:00;;;;;;;12.77;12.18;;;;;;;;;;4990078;28;20026;-65
2023/06/29 01:47:26;;;;;;;12.20;11.60;;;;;;;;;;4992045;28;20074;-65
2023/06/29 01:49:53;;;;;;;12.80;12.20;;;;;;;;;;4991790;28;20045;-65
2023/06/29 01:52:18;;;;;;;13.00;12.30;;;;;;;;;;4984605;28;20038;-65
2023/06/29 01:54:44;;;;;;;13.23;12.52;;;;;;;;;;4985057;28;20022;-65
2023/06/29 01:57:10;;;;;;;13.30;12.60;;;;;;;;;;4983299;28;20030;-65
2023/06/29 01:59:35;;;;;;;13.65;12.95;;;;;;;;;;4984078;28;20030;-65
2023/06/29 02:02:00;;;;;;;13.35;12.65;;;;;;;;;;4985957;28;20410;-65
2023/06/29 02:04:26;;;;;;;13.40;12.70;;;;;;;;;;4983117;28;21754;-66
2023/06/29 02:06:51;;;;;;;13.40;12.70;;;;;;;;;;4983455;28;20505;-64
2023/06/29 02:09:16;;;;;;;12.32;11.73;;;;;;;;;;4984844;28;20401;-65
2023/06/29 02:11:42;;;;;;;13.25;12.55;;;;;;;;;;4983439;28;20029;-65
2023/06/29 02:14:07;;;;;;;14.13;13.32;;;;;;;;;;4985037;28;20025;-65
2023/06/29 02:16:32;;;;;;;12.98;12.27;;;;;;;;;;4982848;28;20076;-64
2023/06/29 02:18:58;;;;;;;12.73;12.10;;;;;;;;;;4983948;28;20030;-64
2023/06/29 02:21:23;;;;;;;12.65;12.05;;;;;;;;;;4985556;28;20521;-66
2023/06/29 02:23:48;;;;;;;12.25;11.65;;;;;;;;;;4985028;28;20838;-64
2023/06/29 02:26:14;;;;;;;12.63;12.02;;;;;;;;;;4982385;28;20126;-64
2023/06/29 02:28:39;;;;;;;12.60;12.00;;;;;;;;;;4981957;28;20046;-65
2023/06/29 02:31:04;;;;;;;13.07;12.38;;;;;;;;;;4986309;28;20053;-65
2023/06/29 02:33:30;;;;;;;13.95;13.15;;;;;;;;;;4983743;28;20031;-65
2023/06/29 02:35:55;;;;;;;12.73;12.10;;;;;;;;;;4984178;28;20084;-66
2023/06/29 02:38:20;;;;;;;13.40;12.65;;;;;;;;;;4983628;28;20054;-65
2023/06/29 02:40:46;;;;;;;12.55;11.95;;;;;;;;;;4984022;28;20501;-66
2023/06/29 02:43:11;;;;;;;13.63;12.85;;;;;;;;;;4982544;28;20031;-66
2023/06/29 02:45:36;;;;;;;12.95;12.25;;;;;;;;;;4980844;28;20057;-65
2023/06/29 02:48:02;;;;;;;12.40;11.80;;;;;;;;;;4983110;28;20039;-65
2023/06/29 02:50:27;;;;;;;12.70;12.07;;;;;;;;;;4984480;28;20081;-65
2023/06/29 02:52:52;;;;;;;12.18;11.57;;;;;;;;;;4983471;28;20068;-65
2023/06/29 02:55:19;;;;;;;12.15;11.55;;;;;;;;;;4983783;28;20737;-65
2023/06/29 02:57:44;;;;;;;11.80;11.20;;;;;;;;;;4981660;28;20482;-65
2023/06/29 03:00:10;;;;;;;13.93;13.15;;;;;;;;;;4982427;28;20047;-66
2023/06/29 03:02:35;;;;;;;13.25;12.55;;;;;;;;;;4984015;28;20077;-66
2023/06/29 03:05:01;;;;;;;12.60;12.00;;;;;;;;;;4983279;28;20510;-64
2023/06/29 03:07:26;;;;;;;13.80;13.10;;;;;;;;;;4976191;28;20030;-65
2023/06/29 03:09:51;;;;;;;13.10;12.48;;;;;;;;;;4982947;28;20084;-66
2023/06/29 03:12:16;;;;;;;12.52;11.93;;;;;;;;;;4983930;28;20029;-66
2023/06/29 03:14:42;;;;;;;12.20;11.60;;;;;;;;;;4982816;28;20022;-65
2023/06/29 03:17:08;;;;;;;13.07;12.48;;;;;;;;;;4984434;28;20041;-65
2023/06/29 03:19:33;;;;;;;12.05;11.50;;;;;;;;;;4984062;28;20045;-66
2023/06/29 03:21:58;;;;;;;11.93;11.43;;;;;;;;;;4994597;28;20490;-65
2023/06/29 03:24:24;;;;;;;12.23;11.63;;;;;;;;;;4992200;28;20105;-66
2023/06/29 03:26:49;;;;;;;12.32;11.73;;;;;;;;;;4989839;28;20038;-66
2023/06/29 03:29:14;;;;;;;12.20;11.60;;;;;;;;;;4991321;28;20108;-66
2023/06/29 03:31:40;;;;;;;12.20;11.65;;;;;;;;;;4992611;28;20069;-65
2023/06/29 03:34:05;;;;;;;11.90;11.40;;;;;;;;;;4992432;28;20449;-66
2023/06/29 03:36:30;;;;;;;12.52;11.93;;;;;;;;;;4987670;28;20549;-65
2023/06/29 03:38:55;;;;;;;12.13;11.57;;;;;;;;;;4986737;28;20037;-65
2023/06/29 03:41:21;;;;;;;12.27;11.70;;;;;;;;;;4986104;28;20112;-66
2023/06/29 03:43:46;;;;;;;12.25;11.70;;;;;;;;;;4992126;28;20032;-66
2023/06/29 03:46:11;;;;;;;12.83;12.23;;;;;;;;;;4991385;28;20465;-67
2023/06/29 03:48:37;;;;;;;12.10;11.60;;;;;;;;;;4984872;28;20354;-65
2023/06/29 03:51:02;;;;;;;11.90;11.40;;;;;;;;;;4991822;28;20022;-66
2023/06/29 03:53:27;;;;;;;12.32;11.75;;;;;;;;;;4982960;28;20018;-65
2023/06/29 03:55:53;;;;;;;12.52;11.93;;;;;;;;;;4981487;28;20026;-63
2023/06/29 03:58:18;;;;;;;12.15;11.65;;;;;;;;;;4978422;28;20116;-63
2023/06/29 04:00:44;;;;;;;12.60;12.00;;;;;;;;;;4981614;28;20077;-64
2023/06/29 04:03:09;;;;;;;13.43;12.82;;;;;;;;;;4975224;28;20042;-64
2023/06/29 04:05:35;;;;;;;12.35;11.80;;;;;;;;;;4979376;28;20450;-64
2023/06/29 04:08:03;;;;;;;12.90;12.30;;;;;;;;;;4976731;28;20018;-63
2023/06/29 04:10:29;;;;;;;12.23;11.73;;;;;;;;;;4979934;28;20022;-63
2023/06/29 04:12:54;;;;;;;12.17;11.67;;;;;;;;;;4982739;28;20037;-63
2023/06/29 04:15:19;;;;;;;12.75;12.15;;;;;;;;;;4978691;28;20386;-64
2023/06/29 04:17:45;;;;;;;12.00;11.50;;;;;;;;;;4983913;28;20029;-63
2023/06/29 04:20:10;;;;;;;12.00;11.50;;;;;;;;;;4982985;28;20099;-64
2023/06/29 04:22:36;;;;;;;12.50;11.90;;;;;;;;;;4980030;28;20271;-63
2023/06/29 04:25:01;;;;;;;12.60;12.00;;;;;;;;;;4982454;28;20482;-63
2023/06/29 04:27:26;;;;;;;12.77;12.18;;;;;;;;;;4977705;28;20045;-63
2023/06/29 04:29:52;;;;;;;12.90;12.30;;;;;;;;;;4981091;28;20062;-63
2023/06/29 04:32:17;;;;;;;12.48;11.88;;;;;;;;;;4980482;28;20401;-63
2023/06/29 04:34:42;;;;;;;12.93;12.32;;;;;;;;;;4977755;28;20454;-63
2023/06/29 04:37:09;;;;;;;12.98;12.38;;;;;;;;;;4978176;28;20125;-64
2023/06/29 04:39:34;;;;;;;12.82;12.23;;;;;;;;;;4979285;28;20500;-63
2023/06/29 04:42:04;;;;;;;12.82;12.23;;;;;;;;;;4978712;28;20030;-63
2023/06/29 04:44:32;;;;;;;12.85;12.25;;;;;;;;;;4977403;28;20040;-65
2023/06/29 04:47:00;;;;;;;12.65;12.05;;;;;;;;;;4978248;28;20031;-63
2023/06/29 04:49:27;;;;;;;12.63;12.02;;;;;;;;;;4984470;28;20023;-63
2023/06/29 04:51:55;;;;;;;12.77;12.18;;;;;;;;;;4983655;28;20429;-63
2023/06/29 04:54:20;;;;;;;12.38;11.82;;;;;;;;;;4983537;28;20037;-64
2023/06/29 04:56:46;;;;;;;12.80;12.20;;;;;;;;;;4982521;28;20405;-62
2023/06/29 04:59:11;;;;;;;12.20;11.70;;;;;;;;;;4981710;28;20272;-64
2023/06/29 05:01:36;;;;;;;12.63;12.03;;;;;;;;;;4981995;28;20264;-63
2023/06/29 05:04:01;;;;;;;12.17;11.67;;;;;;;;;;4982716;28;20268;-63
2023/06/29 05:06:27;;;;;;;11.90;11.40;;;;;;;;;;4983738;28;20795;-64
2023/06/29 05:08:52;;;;;;;12.27;11.77;;;;;;;;;;4982049;28;20261;-65
2023/06/29 05:11:17;;;;;;;12.30;11.80;;;;;;;;;;4983988;28;20550;-63
2023/06/29 05:13:43;;;;;;;12.13;11.63;;;;;;;;;;4983325;28;20026;-63
2023/06/29 05:16:08;;;;;;;12.48;11.90;;;;;;;;;;4981930;28;20039;-63
2023/06/29 05:18:34;;;;;;;12.23;11.73;;;;;;;;;;4983702;28;20482;-63
2023/06/29 05:21:00;;;;;;;12.63;12.02;;;;;;;;;;4988000;28;20027;-63
2023/06/29 05:23:26;;;;;;;12.30;11.77;;;;;;;;;;4983304;28;20024;-63
2023/06/29 05:25:51;;;;;;;12.27;11.77;;;;;;;;;;4986830;28;20165;-63
2023/06/29 05:28:16;;;;;;;11.90;11.40;;;;;;;;;;4992720;28;20440;-67
2023/06/29 05:30:41;;;;;;;11.80;11.30;;;;;;;;;;4995305;28;20248;-63
2023/06/29 05:33:08;;;;;;;12.20;11.70;;;;;;;;;;4996291;28;20026;-63
2023/06/29 05:35:35;;;;;;;12.50;11.90;;;;;;;;;;4991965;28;20018;-63
2023/06/29 05:38:00;;;;;;;12.18;11.68;;;;;;;;;;4993051;28;20077;-63
2023/06/29 05:40:26;;;;;;;12.15;11.65;;;;;;;;;;4992612;28;20492;-63
2023/06/29 05:42:51;;;;;;;12.33;11.80;;;;;;;;;;4988883;28;20022;-63
2023/06/29 05:45:16;;;;;;;13.45;12.85;;;;;;;;;;4991243;28;20644;-63
2023/06/29 05:47:42;;;;;;;12.43;11.85;;;;;;;;;;4993933;28;20058;-63
2023/06/29 05:50:07;;;;;;;12.13;11.63;;;;;;;;;;4992618;28;20018;-62
2023/06/29 05:52:37;;;;;;;12.13;11.63;;;;;;;;;;4987821;28;20053;-63
2023/06/29 05:55:02;;;;;;;12.90;12.30;;;;;;;;;;4984150;28;20038;-63
2023/06/29 05:57:28;;;;;;;11.63;11.13;;;;;;;;;;4982401;28;20034;-63
2023/06/29 05:59:53;;;;;;;12.32;11.80;;;;;;;;;;4981128;28;20085;-64
2023/06/29 06:02:19;;;;;;;11.77;11.27;;;;;;;;;;4982250;28;20038;-63
2023/06/29 06:04:45;;;;;;;12.05;11.55;;;;;;;;;;4984812;28;20280;-64
2023/06/29 06:07:13;;;;;;;12.73;12.13;;;;;;;;;;4982173;28;20030;-64
2023/06/29 06:09:38;;;;;;;12.65;12.05;;;;;;;;;;4984840;28;20022;-63
2023/06/29 06:12:05;;;;;;;12.20;11.70;;;;;;;;;;4982939;28;20437;-62
2023/06/29 06:14:31;;;;;;;13.05;12.45;;;;;;;;;;4981433;28;20096;-64
2023/06/29 06:16:56;;;;;;;12.93;12.32;;;;;;;;;;4963211;28;20042;-63
2023/06/29 06:19:21;;;;;;;13.20;12.60;;;;;;;;;;4971517;28;20692;-65
2023/06/29 06:21:47;;;;;;;12.43;11.87;;;;;;;;;;4982419;28;20038;-64
2023/06/29 06:24:12;;;;;;;12.63;12.02;;;;;;;;;;4987346;28;20628;-63
2023/06/29 06:26:37;;;;;;;12.50;11.93;;;;;;;;;;4988085;28;20026;-63
2023/06/29 06:29:02;;;;;;;12.80;12.20;;;;;;;;;;4984252;28;20291;-63
2023/06/29 06:31:28;;;;;;;12.50;11.90;;;;;;;;;;4984714;28;20030;-64
2023/06/29 06:33:57;;;;;;;12.00;11.50;;;;;;;;;;4987842;28;20260;-64
2023/06/29 06:36:22;;;;;;;12.75;12.15;;;;;;;;;;4980307;28;20353;-64
2023/06/29 06:38:48;;;;;;;12.60;12.00;;;;;;;;;;4971219;28;20573;-64
2023/06/29 06:41:13;;;;;;;12.98;12.38;;;;;;;;;;4970977;28;20057;-64
2023/06/29 06:43:38;;;;;;;13.25;12.65;;;;;;;;;;4971058;28;20034;-64
2023/06/29 06:46:04;;;;;;;13.00;12.40;;;;;;;;;;4972656;28;20057;-63
2023/06/29 06:48:29;;;;;;;12.70;12.10;;;;;;;;;;4974111;28;20022;-64
2023/06/29 06:50:54;;;;;;;12.63;12.03;;;;;;;;;;4971709;28;20533;-65
2023/06/29 06:53:20;;;;;;;12.47;11.90;;;;;;;;;;4975499;28;20022;-65
2023/06/29 06:55:45;;;;;;;12.50;11.90;;;;;;;;;;4981662;28;20019;-65
2023/06/29 06:58:10;;;;;;;12.20;11.70;;;;;;;;;;4984582;28;20069;-67
2023/06/29 07:00:36;;;;;;;11.98;11.48;;;;;;;;;;4987661;28;20509;-67
2023/06/29 07:03:01;;;;;;;11.70;11.20;;;;;;;;;;4989582;28;20034;-65
2023/06/29 07:05:26;;;;;;;12.50;11.90;;;;;;;;;;4989041;28;20033;-65
2023/06/29 07:07:53;;;;;;;12.47;11.87;;;;;;;;;;4982853;28;20486;-66
2023/06/29 07:10:19;;;;;;;11.88;11.38;;;;;;;;;;4977258;28;20050;-65
2023/06/29 07:12:44;;;;;;;12.38;11.82;;;;;;;;;;4985845;28;20053;-68
2023/06/29 07:15:09;;;;;;;12.77;12.17;;;;;;;;;;4985822;28;20022;-68
2023/06/29 07:17:35;;;;;;;12.52;11.93;;;;;;;;;;4984390;28;20271;-67
2023/06/29 07:20:00;;;;;;;12.82;12.23;;;;;;;;;;4980198;28;20030;-67
2023/06/29 07:22:25;;;;;;;12.93;12.32;;;;;;;;;;4981508;28;20032;-67
2023/06/29 07:24:50;;;;;;;12.40;11.80;;;;;;;;;;4979769;28;20030;-66
2023/06/29 07:27:16;;;;;;;12.48;11.88;;;;;;;;;;4981567;28;20281;-67
2023/06/29 07:29:42;;;;;;;12.68;12.07;;;;;;;;;;4984481;28;20039;-67
2023/06/29 07:32:08;;;;;;;12.70;12.10;;;;;;;;;;4985780;28;20032;-66
2023/06/29 07:34:33;;;;;;;12.98;12.38;;;;;;;;;;4981591;28;20065;-65
2023/06/29 07:36:59;;;;;;;13.17;12.57;;;;;;;;;;4982507;28;20034;-66
2023/06/29 07:39:24;;;;;;;13.70;13.10;;;;;;;;;;4983574;28;20295;-66
2023/06/29 07:41:49;;;;;;;13.20;12.60;;;;;;;;;;4984499;28;20274;-67
2023/06/29 07:44:15;;;;;;;13.05;12.45;;;;;;;;;;4982078;28;20060;-67
2023/06/29 07:46:40;;;;;;;13.25;12.65;;;;;;;;;;4979050;28;20018;-66
2023/06/29 07:49:06;;;;;;;13.43;12.82;;;;;;;;;;4977093;28;20434;-67
2023/06/29 07:51:34;;;;;;;13.90;13.20;;;;;;;;;;4982071;28;20356;-66
2023/06/29 07:54:04;;;;;;;13.80;13.10;;;;;;;;;;4978507;28;20983;-67
2023/06/29 07:56:30;;;;;;;12.63;12.02;;;;;;;;;;4979908;28;20034;-64
2023/06/29 07:58:55;;;;;;;12.35;11.75;;;;;;;;;;4985530;28;20385;-66
2023/06/29 08:01:20;;;;;;;13.03;12.43;;;;;;;;;;4982248;28;20116;-65
2023/06/29 08:03:45;;;;;;;13.02;12.43;;;;;;;;;;4980318;28;20634;-65
2023/06/29 08:06:11;;;;;;;13.25;12.65;;;;;;;;;;4986414;28;20058;-65
2023/06/29 08:08:36;;;;;;;12.75;12.15;;;;;;;;;;4979810;28;20109;-65
2023/06/29 08:11:02;;;;;;;12.50;11.90;;;;;;;;;;4985236;28;20035;-66
2023/06/29 08:13:27;;;;;;;12.27;11.68;;;;;;;;;;4976117;28;20421;-66
2023/06/29 08:15:52;;;;;;;13.57;12.88;;;;;;;;;;4981582;28;20061;-65
2023/06/29 08:18:17;;;;;;;12.90;12.30;;;;;;;;;;4984381;28;20115;-66
2023/06/29 08:20:46;;;;;;;12.68;12.07;;;;;;;;;;4983125;28;20467;-65
2023/06/29 08:23:11;;;;;;;14.23;13.52;;;;;;;;;;4978497;28;20753;-67
2023/06/29 08:25:36;;;;;;;14.10;13.40;;;;;;;;;;4987663;28;20031;-65
2023/06/29 08:28:02;;;;;;;12.82;12.23;;;;;;;;;;4980531;28;20050;-66
2023/06/29 08:30:27;;;;;;;12.95;12.35;;;;;;;;;;4986846;28;20073;-67
2023/06/29 08:32:52;;;;;;;17.88;16.88;;;;;;;;;;4982917;28;20470;-65
2023/06/29 08:35:18;;;;;;;12.75;12.15;;;;;;;;;;4984783;28;20589;-65
2023/06/29 08:37:43;;;;;;;13.60;12.90;;;;;;;;;;4987609;28;20022;-66
2023/06/29 08:40:10;;;;;;;12.77;12.18;;;;;;;;;;4989129;28;20499;-65
2023/06/29 08:42:37;;;;;;;12.90;12.30;;;;;;;;;;4979671;28;20027;-66
2023/06/29 08:45:02;;;;;;;14.02;13.32;;;;;;;;;;4986147;28;20030;-65
2023/06/29 08:47:28;;;;;;;13.18;12.55;;;;;;;;;;4975759;28;20414;-65
2023/06/29 08:49:56;;;;;;;13.75;13.05;;;;;;;;;;4981316;28;20375;-63
2023/06/29 08:52:25;;;;;;;13.02;12.43;;;;;;;;;;4984852;28;20026;-65
2023/06/29 08:54:50;;;;;;;13.68;12.98;;;;;;;;;;4983799;28;20030;-64
2023/06/29 08:57:16;;;;;;;13.73;13.02;;;;;;;;;;4987230;28;20034;-64
2023/06/29 08:59:41;;;;;;;13.65;12.95;;;;;;;;;;4981749;28;20031;-63
2023/06/29 09:02:07;;;;;;;13.68;12.98;;;;;;;;;;4984067;28;20113;-63
2023/06/29 09:04:32;;;;;;;12.98;12.38;;;;;;;;;;4979606;28;20026;-64
2023/06/29 09:06:58;;;;;;;13.27;12.65;;;;;;;;;;4985914;28;20027;-64
2023/06/29 09:09:24;;;;;;;13.23;12.63;;;;;;;;;;4986532;28;20052;-64
2023/06/29 09:11:50;;;;;;;12.55;11.95;;;;;;;;;;4988514;28;20062;-65
2023/06/29 09:14:15;;;;;;;13.43;12.73;;;;;;;;;;4983351;28;20486;-64
2023/06/29 09:16:50;;;;;;;13.52;12.82;;;;;;;;;;4988691;28;20449;-64
2023/06/29 09:19:16;;;;;;;13.77;13.07;;;;;;;;;;4988582;28;20026;-64
2023/06/29 09:21:43;;;;;;;14.50;13.73;;;;;;;;;;4983693;28;20080;-64
2023/06/29 09:24:09;;;;;;;13.02;12.43;;;;;;;;;;4980707;28;20058;-65
2023/06/29 09:26:34;;;;;;;13.00;12.40;;;;;;;;;;4983198;28;20655;-64
2023/06/29 09:28:59;;;;;;;13.20;12.55;;;;;;;;;;4985695;28;20536;-65
2023/06/29 09:31:32;;;;;;;13.02;12.43;;;;;;;;;;4985745;28;20027;-65
2023/06/29 09:34:14;;;;;;;13.13;12.48;;;;;;;;;;4983362;28;20069;-65
2023/06/29 09:36:39;;;;;;;14.02;13.32;;;;;;;;;;4980477;28;20038;-64
2023/06/29 09:39:05;;;;;;;13.40;12.70;;;;;;;;;;4984152;28;20034;-65
2023/06/29 09:41:30;;;;;;;13.60;12.90;;;;;;;;;;4982622;28;20386;-64
2023/06/29 09:43:55;;;;;;;13.90;13.20;;;;;;;;;;4983939;28;20022;-64
2023/06/29 09:46:21;;;;;;;13.32;12.63;;;;;;;;;;4981854;28;20692;-65
2023/06/29 09:48:47;;;;;;;14.77;13.98;;;;;;;;;;4986902;28;20026;-65
2023/06/29 09:51:19;;;;;;;13.88;13.18;;;;;;;;;;4986765;28;20030;-64
2023/06/29 09:53:45;;;;;;;14.05;13.35;;;;;;;;;;4984938;28;20084;-63
2023/06/29 09:56:10;;;;;;;14.68;13.88;;;;;;;;;;4983994;28;20316;-64
2023/06/29 09:58:36;;;;;;;14.05;13.35;;;;;;;;;;4986957;28;20126;-65
2023/06/29 10:01:01;;;;;;;15.35;14.52;;;;;;;;;;4984376;28;20026;-64
2023/06/29 10:03:27;;;;;;;13.93;13.23;;;;;;;;;;4982516;28;20026;-64
2023/06/29 10:05:56;;;;;;;14.82;14.02;;;;;;;;;;4984937;28;20077;-64
2023/06/29 10:08:22;;;;;;;14.05;13.30;;;;;;;;;;4980089;28;20052;-66
2023/06/29 10:10:48;;;;;;;15.05;14.25;;;;;;;;;;4981256;28;20026;-64
2023/06/29 10:13:14;;;;;;;15.25;14.40;;;;;;;;;;4981496;28;20132;-65
2023/06/29 10:15:40;;;;;;;14.23;13.43;;;;;;;;;;4982501;28;20441;-63
2023/06/29 10:18:08;;;;;;;14.32;13.52;;;;;;;;;;4979929;28;20030;-65
2023/06/29 10:20:35;;;;;;;14.85;14.02;;;;;;;;;;4985803;28;20109;-62
2023/06/29 10:23:02;;;;;;;13.23;12.52;;;;;;;;;;4982617;28;20133;-66
2023/06/29 10:25:30;;;;;;;14.43;13.63;;;;;;;;;;4981535;28;20144;-65
2023/06/29 10:27:56;;;;;;;13.82;13.13;;;;;;;;;;4983761;28;20034;-66
2023/06/29 10:30:21;;;;;;;14.80;14.00;;;;;;;;;;4979499;28;20245;-65
2023/06/29 10:32:48;;;;;;;13.55;12.85;;;;;;;;;;4979358;28;20019;-66
2023/06/29 10:35:13;;;;;;;14.27;13.48;;;;;;;;;;4984167;28;20081;-67
2023/06/29 10:37:43;;;;;;;13.95;13.25;;;;;;;;;;4983247;28;20034;-68
2023/06/29 10:40:09;;;;;;;13.85;13.15;;;;;;;;;;4983218;28;20034;-64
2023/06/29 10:42:38;;;;;;;14.63;13.82;;;;;;;;;;4982893;28;20509;-65
2023/06/29 10:45:09;;;;;;;13.52;12.82;;;;;;;;;;4980287;28;20034;-64
2023/06/29 10:47:38;;;;;;;14.70;13.90;;;;;;;;;;4982444;28;20060;-63
2023/06/29 10:50:09;;;;;;;13.75;13.05;;;;;;;;;;4979852;28;20437;-66
2023/06/29 10:52:35;;;;;;;14.63;13.82;;;;;;;;;;4980683;28;20033;-62
2023/06/29 10:55:13;;;;;;;15.05;14.25;;;;;;;;;;4988156;28;20386;-61
2023/06/29 10:57:39;;;;;;;13.30;12.60;;;;;;;;;;4987101;28;20061;-60
2023/06/29 11:00:05;;;;;;;14.00;13.27;;;;;;;;;;4983718;28;20442;-65
2023/06/29 11:02:30;;;;;;;12.88;12.27;;;;;;;;;;4980648;28;20030;-63
2023/06/29 11:04:57;;;;;;;12.75;12.15;;;;;;;;;;4985584;28;20502;-65
2023/06/29 11:07:23;;;;;;;13.05;12.45;;;;;;;;;;4983523;28;20038;-64
2023/06/29 11:09:58;;;;;;;12.90;12.30;;;;;;;;;;4991111;28;20085;-64
2023/06/29 11:12:23;;;;;;;12.07;11.48;;;;;;;;;;4988375;28;20049;-65
2023/06/29 11:14:50;;;;;;;12.80;12.20;;;;;;;;;;4991874;28;20470;-64
2023/06/29 11:17:17;;;;;;;12.45;11.85;;;;;;;;;;4991769;28;20022;-64
2023/06/29 11:19:44;;;;;;;12.65;12.05;;;;;;;;;;4992011;28;20014;-63
2023/06/29 11:22:09;;;;;;;13.43;12.73;;;;;;;;;;4992979;28;20026;-63
2023/06/29 11:24:35;;;;;;;12.60;12.00;;;;;;;;;;4997059;28;20406;-63
2023/06/29 11:27:01;;;;;;;12.48;11.88;;;;;;;;;;4992220;28;20057;-64
2023/06/29 11:29:29;;;;;;;12.40;11.80;;;;;;;;;;4992247;28;20050;-64
2023/06/29 11:31:55;;;;;;;13.05;12.45;;;;;;;;;;4991988;28;20030;-63
2023/06/29 11:34:20;;;;;;;11.70;11.20;;;;;;;;;;4992274;28;20052;-67
2023/06/29 11:36:47;;;;;;;12.50;11.90;;;;;;;;;;4990456;28;20022;-64
2023/06/29 11:39:12;;;;;;;12.75;12.15;;;;;;;;;;4992156;28;20294;-63
2023/06/29 11:41:39;;;;;;;11.90;11.40;;;;;;;;;;4990655;28;20034;-64
2023/06/29 11:44:04;;;;;;;12.38;11.77;;;;;;;;;;4990365;28;20053;-64
2023/06/29 11:46:33;;;;;;;11.85;11.35;;;;;;;;;;4991802;28;20495;-64
2023/06/29 11:48:59;;;;;;;13.70;13.00;;;;;;;;;;4989850;28;20029;-64
2023/06/29 11:51:25;;;;;;;12.10;11.50;;;;;;;;;;4998068;28;20022;-65
2023/06/29 11:53:53;;;;;;;12.15;11.55;;;;;;;;;;4984086;28;20097;-64
2023/06/29 11:56:25;;;;;;;12.18;11.57;;;;;;;;;;4991864;28;20433;-63
2023/06/29 11:58:51;;;;;;;12.77;12.18;;;;;;;;;;4996282;28;20030;-64
2023/06/29 12:01:16;;;;;;;12.20;11.60;;;;;;;;;;4991740;28;20107;-63
2023/06/29 12:03:42;;;;;;;12.30;11.70;;;;;;;;;;4992284;28;20099;-63
2023/06/29 12:06:08;;;;;;;12.35;11.75;;;;;;;;;;4989457;28;20022;-63
2023/06/29 12:08:38;;;;;;;12.32;11.73;;;;;;;;;;4987299;28;20061;-64
2023/06/29 12:11:03;;;;;;;12.75;12.15;;;;;;;;;;4991689;28;20069;-65
2023/06/29 12:13:29;;;;;;;11.80;11.30;;;;;;;;;;4991633;28;20525;-64
2023/06/29 12:15:54;;;;;;;13.30;12.65;;;;;;;;;;4991241;28;20080;-63
2023/06/29 12:18:19;;;;;;;12.88;12.27;;;;;;;;;;4993181;28;20481;-63
2023/06/29 12:20:47;;;;;;;12.82;12.23;;;;;;;;;;4986152;28;20014;-64
2023/06/29 12:23:13;;;;;;;12.13;11.52;;;;;;;;;;4989132;28;20045;-63
2023/06/29 12:25:43;;;;;;;11.88;11.35;;;;;;;;;;4988688;28;20061;-64
2023/06/29 12:28:08;;;;;;;12.32;11.73;;;;;;;;;;4985670;28;20430;-64
2023/06/29 12:30:34;;;;;;;12.27;11.68;;;;;;;;;;4992639;28;20033;-64
2023/06/29 12:32:59;;;;;;;12.60;12.00;;;;;;;;;;4991554;28;20037;-64
2023/06/29 12:35:25;;;;;;;12.00;11.40;;;;;;;;;;4991017;28;20049;-64
2023/06/29 12:37:50;;;;;;;12.23;11.63;;;;;;;;;;4991678;28;20490;-63
2023/06/29 12:40:15;;;;;;;12.52;11.93;;;;;;;;;;4992191;28;20022;-64
2023/06/29 12:42:41;;;;;;;11.98;11.43;;;;;;;;;;4990870;28;20023;-63
2023/06/29 12:45:07;;;;;;;12.48;11.88;;;;;;;;;;4997123;28;20481;-64
2023/06/29 12:47:35;;;;;;;12.40;11.80;;;;;;;;;;4991567;28;20389;-64
2023/06/29 12:50:01;;;;;;;12.25;11.65;;;;;;;;;;4988315;28;20069;-64
2023/06/29 12:52:26;;;;;;;12.60;12.00;;;;;;;;;;4988051;28;20022;-63
2023/06/29 12:54:57;;;;;;;12.35;11.75;;;;;;;;;;4987724;28;20552;-64
2023/06/29 12:57:25;;;;;;;12.52;11.93;;;;;;;;;;4991697;28;20038;-63
2023/06/29 12:59:51;;;;;;;12.40;11.80;;;;;;;;;;4991091;28;20061;-63
2023/06/29 13:02:16;;;;;;;12.02;11.43;;;;;;;;;;4989343;28;20050;-64
2023/06/29 13:04:42;;;;;;;12.35;11.75;;;;;;;;;;4991067;28;20478;-64
2023/06/29 13:07:08;;;;;;;12.23;11.63;;;;;;;;;;4989900;28;20018;-64
2023/06/29 13:09:35;;;;;;;12.32;11.73;;;;;;;;;;4986057;28;20030;-64
2023/06/29 13:12:00;;;;;;;12.75;12.15;;;;;;;;;;4993298;28;20102;-64
2023/06/29 13:14:28;;;;;;;12.00;11.40;;;;;;;;;;5001006;28;20049;-64
2023/06/29 13:16:55;;;;;;;12.52;11.93;;;;;;;;;;4989676;28;20098;-64
2023/06/29 13:19:21;;;;;;;13.82;13.13;;;;;;;;;;4992613;28;20085;-64
2023/06/29 13:21:46;;;;;;;12.40;11.80;;;;;;;;;;4986967;28;20027;-63
2023/06/29 13:24:11;;;;;;;12.55;11.95;;;;;;;;;;4992636;28;20054;-64
2023/06/29 13:26:36;;;;;;;12.50;11.90;;;;;;;;;;4988667;28;20039;-63
2023/06/29 13:29:02;;;;;;;13.10;12.50;;;;;;;;;;4993885;28;20154;-63
2023/06/29 13:31:27;;;;;;;12.95;12.35;;;;;;;;;;4993020;28;20026;-63
2023/06/29 13:33:52;;;;;;;11.90;11.32;;;;;;;;;;4994057;28;20030;-64
2023/06/29 13:36:18;;;;;;;12.10;11.50;;;;;;;;;;4994218;28;20022;-63
2023/06/29 13:38:44;;;;;;;11.57;11.07;;;;;;;;;;4997018;28;20254;-65
2023/06/29 13:41:09;;;;;;;12.10;11.50;;;;;;;;;;4997800;28;20038;-65
2023/06/29 13:43:34;;;;;;;12.32;11.73;;;;;;;;;;4993879;28;20497;-63
2023/06/29 13:46:00;;;;;;;12.20;11.60;;;;;;;;;;4992466;28;20014;-64
2023/06/29 13:48:25;;;;;;;12.18;11.57;;;;;;;;;;4993582;28;20034;-65
2023/06/29 13:50:51;;;;;;;12.30;11.70;;;;;;;;;;4988070;28;20033;-64
2023/06/29 13:53:17;;;;;;;11.93;11.35;;;;;;;;;;4987461;28;20109;-64
2023/06/29 13:55:42;;;;;;;11.45;10.95;;;;;;;;;;4992869;28;20752;-64
2023/06/29 13:58:08;;;;;;;13.07;12.48;;;;;;;;;;5000538;28;20429;-65
2023/06/29 14:00:34;;;;;;;11.48;10.98;;;;;;;;;;4986191;28;20422;-63
2023/06/29 14:02:59;;;;;;;11.98;11.40;;;;;;;;;;4993886;28;20102;-63
2023/06/29 14:05:24;;;;;;;12.10;11.50;;;;;;;;;;4991969;28;20026;-64
2023/06/29 14:07:50;;;;;;;12.57;11.98;;;;;;;;;;4994273;28;20897;-64
2023/06/29 14:10:15;;;;;;;12.35;11.75;;;;;;;;;;4995917;28;20489;-64